sensor_id;sensor_type;location;lat;lon;timestamp;temperature;humidity
70269;DHT22;58514;48.398;-4.274;2022-12-07T00:00:27;5.50;99.90
70269;DHT22;58514;48.398;-4.274;2022-12-07T00:02:53;5.40;99.90
70269;DHT22;58514;48.398;-4.274;2022-12-07T00:05:19;5.40;99.90
70269;DHT22;58514;48.398;-4.274;2022-12-07T00:07:44;5.40;99.90
70269;DHT22;58514;48.398;-4.274;2022-12-07T00:10:10;5.40;99.90
70269;DHT22;58514;48.398;-4.274;2022-12-07T00:12:35;5.40;99.90
70269;DHT22;58514;48.398;-4.274;2022-12-07T00:15:01;5.40;99.90
70269;DHT22;58514;48.398;-4.274;2022-12-07T00:17:26;5.40;99.90
70269;DHT22;58514;48.398;-4.274;2022-12-07T00:19:52;5.40;99.90
70269;DHT22;58514;48.398;-4.274;2022-12-07T00:22:17;5.40;99.90
70269;DHT22;58514;48.398;-4.274;2022-12-07T00:24:43;5.40;99.90
70269;DHT22;58514;48.398;-4.274;2022-12-07T00:27:08;5.50;99.90
70269;DHT22;58514;48.398;-4.274;2022-12-07T00:29:34;5.50;99.90
70269;DHT22;58514;48.398;-4.274;2022-12-07T00:31:59;5.50;99.90
70269;DHT22;58514;48.398;-4.274;2022-12-07T00:34:25;5.60;99.90
70269;DHT22;58514;48.398;-4.274;2022-12-07T00:36:50;5.60;99.90
70269;DHT22;58514;48.398;-4.274;2022-12-07T00:39:16;5.60;99.90
70269;DHT22;58514;48.398;-4.274;2022-12-07T00:41:42;5.70;99.90
70269;DHT22;58514;48.398;-4.274;2022-12-07T00:44:07;5.70;99.90
70269;DHT22;58514;48.398;-4.274;2022-12-07T00:46:33;5.60;99.90
70269;DHT22;58514;48.398;-4.274;2022-12-07T00:48:58;5.70;99.90
70269;DHT22;58514;48.398;-4.274;2022-12-07T00:51:24;5.70;99.90
70269;DHT22;58514;48.398;-4.274;2022-12-07T00:53:50;5.70;99.90
70269;DHT22;58514;48.398;-4.274;2022-12-07T00:56:20;5.70;99.90
70269;DHT22;58514;48.398;-4.274;2022-12-07T00:58:50;5.70;99.90
70269;DHT22;58514;48.398;-4.274;2022-12-07T01:01:16;5.70;99.90
70269;DHT22;58514;48.398;-4.274;2022-12-07T01:03:41;5.70;99.90
70269;DHT22;58514;48.398;-4.274;2022-12-07T01:06:07;5.70;99.90
70269;DHT22;58514;48.398;-4.274;2022-12-07T01:08:33;5.70;99.90
70269;DHT22;58514;48.398;-4.274;2022-12-07T01:11:03;5.70;99.90
70269;DHT22;58514;48.398;-4.274;2022-12-07T01:13:29;5.70;99.90
70269;DHT22;58514;48.398;-4.274;2022-12-07T01:15:58;5.70;99.90
70269;DHT22;58514;48.398;-4.274;2022-12-07T01:18:25;5.70;99.90
70269;DHT22;58514;48.398;-4.274;2022-12-07T01:21:00;5.60;99.90
70269;DHT22;58514;48.398;-4.274;2022-12-07T01:23:26;5.60;99.90
70269;DHT22;58514;48.398;-4.274;2022-12-07T01:25:55;5.60;99.90
70269;DHT22;58514;48.398;-4.274;2022-12-07T01:28:21;5.60;99.90
70269;DHT22;58514;48.398;-4.274;2022-12-07T01:30:54;5.60;99.90
70269;DHT22;58514;48.398;-4.274;2022-12-07T01:33:20;5.60;99.90
70269;DHT22;58514;48.398;-4.274;2022-12-07T01:35:45;5.60;99.90
70269;DHT22;58514;48.398;-4.274;2022-12-07T01:38:11;5.60;99.90
70269;DHT22;58514;48.398;-4.274;2022-12-07T01:40:36;5.60;99.90
70269;DHT22;58514;48.398;-4.274;2022-12-07T01:43:02;5.60;99.90
70269;DHT22;58514;48.398;-4.274;2022-12-07T01:47:56;5.60;99.90
70269;DHT22;58514;48.398;-4.274;2022-12-07T01:50:24;5.60;99.90
70269;DHT22;58514;48.398;-4.274;2022-12-07T01:52:51;5.60;99.90
70269;DHT22;58514;48.398;-4.274;2022-12-07T01:55:17;5.60;99.90
70269;DHT22;58514;48.398;-4.274;2022-12-07T01:57:45;5.60;99.90
70269;DHT22;58514;48.398;-4.274;2022-12-07T02:00:12;5.60;99.90
70269;DHT22;58514;48.398;-4.274;2022-12-07T02:02:42;5.60;99.90
70269;DHT22;58514;48.398;-4.274;2022-12-07T02:05:09;5.60;99.90
70269;DHT22;58514;48.398;-4.274;2022-12-07T02:07:36;5.60;99.90
70269;DHT22;58514;48.398;-4.274;2022-12-07T02:10:19;5.60;99.90
70269;DHT22;58514;48.398;-4.274;2022-12-07T02:12:45;5.60;99.90
70269;DHT22;58514;48.398;-4.274;2022-12-07T02:15:11;5.50;99.90
70269;DHT22;58514;48.398;-4.274;2022-12-07T02:17:42;5.50;99.90
70269;DHT22;58514;48.398;-4.274;2022-12-07T02:20:17;5.40;99.90
70269;DHT22;58514;48.398;-4.274;2022-12-07T02:27:47;5.30;99.90
70269;DHT22;58514;48.398;-4.274;2022-12-07T02:30:21;5.30;99.90
70269;DHT22;58514;48.398;-4.274;2022-12-07T02:33:04;5.30;99.90
70269;DHT22;58514;48.398;-4.274;2022-12-07T02:35:39;5.20;99.90
70269;DHT22;58514;48.398;-4.274;2022-12-07T02:40:39;5.20;99.90
70269;DHT22;58514;48.398;-4.274;2022-12-07T02:45:38;5.20;99.90
70269;DHT22;58514;48.398;-4.274;2022-12-07T02:48:04;5.10;99.90
70269;DHT22;58514;48.398;-4.274;2022-12-07T02:50:30;5.10;99.90
70269;DHT22;58514;48.398;-4.274;2022-12-07T02:52:56;5.10;99.90
70269;DHT22;58514;48.398;-4.274;2022-12-07T02:55:23;5.10;99.90
70269;DHT22;58514;48.398;-4.274;2022-12-07T03:00:19;5.10;99.90
70269;DHT22;58514;48.398;-4.274;2022-12-07T03:07:47;5.10;99.90
70269;DHT22;58514;48.398;-4.274;2022-12-07T03:10:28;5.10;99.90
70269;DHT22;58514;48.398;-4.274;2022-12-07T03:15:43;5.10;99.90
70269;DHT22;58514;48.398;-4.274;2022-12-07T03:18:12;5.10;99.90
70269;DHT22;58514;48.398;-4.274;2022-12-07T03:20:38;5.20;99.90
70269;DHT22;58514;48.398;-4.274;2022-12-07T03:23:05;5.20;99.90
70269;DHT22;58514;48.398;-4.274;2022-12-07T03:25:35;5.20;99.90
70269;DHT22;58514;48.398;-4.274;2022-12-07T03:28:02;5.30;99.90
70269;DHT22;58514;48.398;-4.274;2022-12-07T03:30:31;5.30;99.90
70269;DHT22;58514;48.398;-4.274;2022-12-07T03:33:03;5.30;99.90
70269;DHT22;58514;48.398;-4.274;2022-12-07T03:37:57;5.40;99.90
70269;DHT22;58514;48.398;-4.274;2022-12-07T03:40:34;5.40;99.90
70269;DHT22;58514;48.398;-4.274;2022-12-07T03:43:02;5.40;99.90
70269;DHT22;58514;48.398;-4.274;2022-12-07T03:45:31;5.50;99.90
70269;DHT22;58514;48.398;-4.274;2022-12-07T03:48:20;5.50;99.90
70269;DHT22;58514;48.398;-4.274;2022-12-07T03:50:49;5.50;99.90
70269;DHT22;58514;48.398;-4.274;2022-12-07T03:55:57;5.60;99.90
70269;DHT22;58514;48.398;-4.274;2022-12-07T03:58:23;5.60;99.90
70269;DHT22;58514;48.398;-4.274;2022-12-07T04:00:49;5.60;99.90
70269;DHT22;58514;48.398;-4.274;2022-12-07T04:03:15;5.70;99.90
70269;DHT22;58514;48.398;-4.274;2022-12-07T04:05:41;5.70;99.90
70269;DHT22;58514;48.398;-4.274;2022-12-07T04:08:07;5.70;99.90
70269;DHT22;58514;48.398;-4.274;2022-12-07T04:10:33;5.70;99.90
70269;DHT22;58514;48.398;-4.274;2022-12-07T04:12:58;5.70;99.90
70269;DHT22;58514;48.398;-4.274;2022-12-07T04:15:24;5.80;99.90
70269;DHT22;58514;48.398;-4.274;2022-12-07T04:17:49;5.80;99.90
70269;DHT22;58514;48.398;-4.274;2022-12-07T04:20:16;5.90;99.90
70269;DHT22;58514;48.398;-4.274;2022-12-07T04:22:41;5.90;99.90
70269;DHT22;58514;48.398;-4.274;2022-12-07T04:25:07;5.90;99.90
70269;DHT22;58514;48.398;-4.274;2022-12-07T04:27:33;6.00;99.90
70269;DHT22;58514;48.398;-4.274;2022-12-07T04:29:58;6.00;99.90
70269;DHT22;58514;48.398;-4.274;2022-12-07T04:32:24;6.00;99.90
70269;DHT22;58514;48.398;-4.274;2022-12-07T04:34:50;6.00;99.90
70269;DHT22;58514;48.398;-4.274;2022-12-07T04:37:15;6.00;99.90
70269;DHT22;58514;48.398;-4.274;2022-12-07T04:39:42;6.00;99.90
70269;DHT22;58514;48.398;-4.274;2022-12-07T04:42:10;6.00;99.90
70269;DHT22;58514;48.398;-4.274;2022-12-07T04:44:36;6.00;99.90
70269;DHT22;58514;48.398;-4.274;2022-12-07T04:47:01;6.00;99.90
70269;DHT22;58514;48.398;-4.274;2022-12-07T04:49:27;6.00;99.90
70269;DHT22;58514;48.398;-4.274;2022-12-07T04:51:53;6.00;99.90
70269;DHT22;58514;48.398;-4.274;2022-12-07T04:54:18;6.00;99.90
70269;DHT22;58514;48.398;-4.274;2022-12-07T04:56:44;6.00;99.90
70269;DHT22;58514;48.398;-4.274;2022-12-07T04:59:13;6.00;99.90
70269;DHT22;58514;48.398;-4.274;2022-12-07T05:01:39;6.00;99.90
70269;DHT22;58514;48.398;-4.274;2022-12-07T05:04:05;6.00;99.90
70269;DHT22;58514;48.398;-4.274;2022-12-07T05:06:31;5.90;99.90
70269;DHT22;58514;48.398;-4.274;2022-12-07T05:08:56;6.00;99.90
70269;DHT22;58514;48.398;-4.274;2022-12-07T05:11:22;6.00;99.90
70269;DHT22;58514;48.398;-4.274;2022-12-07T05:14:03;6.00;99.90
70269;DHT22;58514;48.398;-4.274;2022-12-07T05:16:29;6.00;99.90
70269;DHT22;58514;48.398;-4.274;2022-12-07T05:18:55;6.00;99.90
70269;DHT22;58514;48.398;-4.274;2022-12-07T05:21:21;5.90;99.90
70269;DHT22;58514;48.398;-4.274;2022-12-07T05:23:46;5.90;99.90
70269;DHT22;58514;48.398;-4.274;2022-12-07T05:26:12;5.90;99.90
70269;DHT22;58514;48.398;-4.274;2022-12-07T05:28:38;5.80;99.90
70269;DHT22;58514;48.398;-4.274;2022-12-07T05:31:03;5.70;99.90
70269;DHT22;58514;48.398;-4.274;2022-12-07T05:33:29;5.70;99.90
70269;DHT22;58514;48.398;-4.274;2022-12-07T05:35:54;5.70;99.90
70269;DHT22;58514;48.398;-4.274;2022-12-07T05:38:20;5.60;99.90
70269;DHT22;58514;48.398;-4.274;2022-12-07T05:40:46;5.60;99.90
70269;DHT22;58514;48.398;-4.274;2022-12-07T05:43:11;5.50;99.90
70269;DHT22;58514;48.398;-4.274;2022-12-07T05:45:37;5.40;99.90
70269;DHT22;58514;48.398;-4.274;2022-12-07T05:48:02;5.40;99.90
70269;DHT22;58514;48.398;-4.274;2022-12-07T05:50:28;5.30;99.90
70269;DHT22;58514;48.398;-4.274;2022-12-07T05:52:53;5.30;99.90
70269;DHT22;58514;48.398;-4.274;2022-12-07T05:55:19;5.30;99.90
70269;DHT22;58514;48.398;-4.274;2022-12-07T05:57:44;5.30;99.90
70269;DHT22;58514;48.398;-4.274;2022-12-07T06:00:30;5.20;99.90
70269;DHT22;58514;48.398;-4.274;2022-12-07T06:02:55;5.20;99.90
70269;DHT22;58514;48.398;-4.274;2022-12-07T06:05:21;5.20;99.90
70269;DHT22;58514;48.398;-4.274;2022-12-07T06:07:47;5.20;99.90
70269;DHT22;58514;48.398;-4.274;2022-12-07T06:10:12;5.20;99.90
70269;DHT22;58514;48.398;-4.274;2022-12-07T06:12:38;5.20;99.90
70269;DHT22;58514;48.398;-4.274;2022-12-07T06:15:05;5.20;99.90
70269;DHT22;58514;48.398;-4.274;2022-12-07T06:17:30;5.20;99.90
70269;DHT22;58514;48.398;-4.274;2022-12-07T06:19:56;5.30;99.90
70269;DHT22;58514;48.398;-4.274;2022-12-07T06:22:21;5.30;99.90
70269;DHT22;58514;48.398;-4.274;2022-12-07T06:24:47;5.30;99.90
70269;DHT22;58514;48.398;-4.274;2022-12-07T06:27:13;5.30;99.90
70269;DHT22;58514;48.398;-4.274;2022-12-07T06:29:38;5.40;99.90
70269;DHT22;58514;48.398;-4.274;2022-12-07T06:32:04;5.40;99.90
70269;DHT22;58514;48.398;-4.274;2022-12-07T06:34:30;5.40;99.90
70269;DHT22;58514;48.398;-4.274;2022-12-07T06:36:55;5.40;99.90
70269;DHT22;58514;48.398;-4.274;2022-12-07T06:39:22;5.50;99.90
70269;DHT22;58514;48.398;-4.274;2022-12-07T06:41:48;5.40;99.90
70269;DHT22;58514;48.398;-4.274;2022-12-07T06:44:13;5.50;99.90
70269;DHT22;58514;48.398;-4.274;2022-12-07T06:46:39;5.50;99.90
70269;DHT22;58514;48.398;-4.274;2022-12-07T06:49:05;5.60;99.90
70269;DHT22;58514;48.398;-4.274;2022-12-07T06:51:31;5.60;99.90
70269;DHT22;58514;48.398;-4.274;2022-12-07T06:53:56;5.50;99.90
70269;DHT22;58514;48.398;-4.274;2022-12-07T06:56:22;5.50;99.90
70269;DHT22;58514;48.398;-4.274;2022-12-07T06:58:48;5.50;99.90
70269;DHT22;58514;48.398;-4.274;2022-12-07T07:01:14;5.50;99.90
70269;DHT22;58514;48.398;-4.274;2022-12-07T07:03:40;5.50;99.90
70269;DHT22;58514;48.398;-4.274;2022-12-07T07:06:06;5.50;99.90
70269;DHT22;58514;48.398;-4.274;2022-12-07T07:08:33;5.50;99.90
70269;DHT22;58514;48.398;-4.274;2022-12-07T07:10:58;5.60;99.90
70269;DHT22;58514;48.398;-4.274;2022-12-07T07:13:24;5.60;99.90
70269;DHT22;58514;48.398;-4.274;2022-12-07T07:15:50;5.60;99.90
70269;DHT22;58514;48.398;-4.274;2022-12-07T07:18:15;5.70;99.90
70269;DHT22;58514;48.398;-4.274;2022-12-07T07:20:41;5.70;99.90
70269;DHT22;58514;48.398;-4.274;2022-12-07T07:23:06;5.70;99.90
70269;DHT22;58514;48.398;-4.274;2022-12-07T07:25:32;5.70;99.90
70269;DHT22;58514;48.398;-4.274;2022-12-07T07:27:58;5.80;99.90
70269;DHT22;58514;48.398;-4.274;2022-12-07T07:30:24;5.80;99.90
70269;DHT22;58514;48.398;-4.274;2022-12-07T07:32:49;5.80;99.90
70269;DHT22;58514;48.398;-4.274;2022-12-07T07:35:15;5.80;99.90
70269;DHT22;58514;48.398;-4.274;2022-12-07T07:37:41;5.80;99.90
70269;DHT22;58514;48.398;-4.274;2022-12-07T07:40:07;5.90;99.90
70269;DHT22;58514;48.398;-4.274;2022-12-07T07:42:32;5.90;99.90
70269;DHT22;58514;48.398;-4.274;2022-12-07T07:44:58;5.90;99.90
70269;DHT22;58514;48.398;-4.274;2022-12-07T07:47:23;5.90;99.90
70269;DHT22;58514;48.398;-4.274;2022-12-07T07:49:49;5.90;99.90
70269;DHT22;58514;48.398;-4.274;2022-12-07T07:52:15;5.90;99.90
70269;DHT22;58514;48.398;-4.274;2022-12-07T07:54:40;6.00;99.90
70269;DHT22;58514;48.398;-4.274;2022-12-07T07:57:06;6.00;99.90
70269;DHT22;58514;48.398;-4.274;2022-12-07T07:59:31;6.00;99.90
70269;DHT22;58514;48.398;-4.274;2022-12-07T08:01:57;6.10;99.90
70269;DHT22;58514;48.398;-4.274;2022-12-07T08:04:22;6.10;99.90
70269;DHT22;58514;48.398;-4.274;2022-12-07T08:06:50;6.10;99.90
70269;DHT22;58514;48.398;-4.274;2022-12-07T08:09:15;6.10;99.90
70269;DHT22;58514;48.398;-4.274;2022-12-07T08:11:41;6.10;99.90
70269;DHT22;58514;48.398;-4.274;2022-12-07T08:14:07;6.10;99.90
70269;DHT22;58514;48.398;-4.274;2022-12-07T08:16:32;6.00;99.90
70269;DHT22;58514;48.398;-4.274;2022-12-07T08:18:58;6.00;99.90
70269;DHT22;58514;48.398;-4.274;2022-12-07T08:21:23;6.00;99.90
70269;DHT22;58514;48.398;-4.274;2022-12-07T08:23:49;6.00;99.90
70269;DHT22;58514;48.398;-4.274;2022-12-07T08:26:15;5.90;99.90
70269;DHT22;58514;48.398;-4.274;2022-12-07T08:28:41;6.00;99.90
70269;DHT22;58514;48.398;-4.274;2022-12-07T08:31:08;6.00;99.90
70269;DHT22;58514;48.398;-4.274;2022-12-07T08:33:35;6.00;99.90
70269;DHT22;58514;48.398;-4.274;2022-12-07T08:36:01;6.10;99.90
70269;DHT22;58514;48.398;-4.274;2022-12-07T08:38:27;6.20;99.90
70269;DHT22;58514;48.398;-4.274;2022-12-07T08:40:53;6.20;99.90
70269;DHT22;58514;48.398;-4.274;2022-12-07T08:43:19;6.30;99.90
70269;DHT22;58514;48.398;-4.274;2022-12-07T08:45:45;6.30;99.90
70269;DHT22;58514;48.398;-4.274;2022-12-07T08:48:11;6.30;99.90
70269;DHT22;58514;48.398;-4.274;2022-12-07T08:50:38;6.30;99.90
70269;DHT22;58514;48.398;-4.274;2022-12-07T08:53:04;6.30;99.90
70269;DHT22;58514;48.398;-4.274;2022-12-07T08:55:30;6.40;99.90
70269;DHT22;58514;48.398;-4.274;2022-12-07T08:58:00;6.40;99.90
70269;DHT22;58514;48.398;-4.274;2022-12-07T09:00:26;6.40;99.90
70269;DHT22;58514;48.398;-4.274;2022-12-07T09:02:51;6.50;99.90
70269;DHT22;58514;48.398;-4.274;2022-12-07T09:05:17;6.50;99.90
70269;DHT22;58514;48.398;-4.274;2022-12-07T09:07:43;6.50;99.90
70269;DHT22;58514;48.398;-4.274;2022-12-07T09:10:10;6.60;99.90
70269;DHT22;58514;48.398;-4.274;2022-12-07T09:12:35;6.70;99.90
70269;DHT22;58514;48.398;-4.274;2022-12-07T09:15:01;6.70;99.90
70269;DHT22;58514;48.398;-4.274;2022-12-07T09:17:27;6.80;99.90
70269;DHT22;58514;48.398;-4.274;2022-12-07T09:19:56;6.80;99.90
70269;DHT22;58514;48.398;-4.274;2022-12-07T09:22:22;6.80;99.90
70269;DHT22;58514;48.398;-4.274;2022-12-07T09:24:47;6.80;99.90
70269;DHT22;58514;48.398;-4.274;2022-12-07T09:27:13;6.90;99.90
70269;DHT22;58514;48.398;-4.274;2022-12-07T09:29:39;6.90;99.90
70269;DHT22;58514;48.398;-4.274;2022-12-07T09:32:05;6.90;99.90
70269;DHT22;58514;48.398;-4.274;2022-12-07T09:34:31;6.90;99.90
70269;DHT22;58514;48.398;-4.274;2022-12-07T09:36:57;6.90;99.90
70269;DHT22;58514;48.398;-4.274;2022-12-07T09:39:23;6.90;99.90
70269;DHT22;58514;48.398;-4.274;2022-12-07T09:41:48;7.00;99.90
70269;DHT22;58514;48.398;-4.274;2022-12-07T09:44:16;7.00;99.90
70269;DHT22;58514;48.398;-4.274;2022-12-07T09:46:43;7.10;99.90
70269;DHT22;58514;48.398;-4.274;2022-12-07T09:49:20;7.10;99.90
70269;DHT22;58514;48.398;-4.274;2022-12-07T09:51:46;7.10;99.90
70269;DHT22;58514;48.398;-4.274;2022-12-07T09:54:13;7.20;99.90
70269;DHT22;58514;48.398;-4.274;2022-12-07T09:56:39;7.20;99.90
70269;DHT22;58514;48.398;-4.274;2022-12-07T09:59:04;7.20;99.90
70269;DHT22;58514;48.398;-4.274;2022-12-07T10:01:31;7.30;99.90
70269;DHT22;58514;48.398;-4.274;2022-12-07T10:06:32;7.30;99.90
70269;DHT22;58514;48.398;-4.274;2022-12-07T10:08:58;7.30;99.90
70269;DHT22;58514;48.398;-4.274;2022-12-07T10:11:23;7.40;99.90
70269;DHT22;58514;48.398;-4.274;2022-12-07T10:13:52;7.40;99.90
70269;DHT22;58514;48.398;-4.274;2022-12-07T10:18:53;7.40;99.90
70269;DHT22;58514;48.398;-4.274;2022-12-07T10:21:20;7.40;99.90
70269;DHT22;58514;48.398;-4.274;2022-12-07T10:24:02;7.40;99.90
70269;DHT22;58514;48.398;-4.274;2022-12-07T10:28:54;7.50;99.90
70269;DHT22;58514;48.398;-4.274;2022-12-07T10:31:21;7.50;99.90
70269;DHT22;58514;48.398;-4.274;2022-12-07T10:33:51;7.50;99.90
70269;DHT22;58514;48.398;-4.274;2022-12-07T10:38:50;7.60;99.90
70269;DHT22;58514;48.398;-4.274;2022-12-07T10:41:16;7.60;99.90
70269;DHT22;58514;48.398;-4.274;2022-12-07T10:43:49;7.60;99.90
70269;DHT22;58514;48.398;-4.274;2022-12-07T10:46:28;7.60;99.90
70269;DHT22;58514;48.398;-4.274;2022-12-07T10:56:45;7.60;99.90
70269;DHT22;58514;48.398;-4.274;2022-12-07T11:04:22;7.90;99.90
70269;DHT22;58514;48.398;-4.274;2022-12-07T11:06:53;8.00;99.90
70269;DHT22;58514;48.398;-4.274;2022-12-07T11:14:40;8.20;99.90
70269;DHT22;58514;48.398;-4.274;2022-12-07T11:29:32;8.20;99.90
70269;DHT22;58514;48.398;-4.274;2022-12-07T11:32:19;8.20;99.90
70269;DHT22;58514;48.398;-4.274;2022-12-07T11:37:13;8.20;99.90
70269;DHT22;58514;48.398;-4.274;2022-12-07T11:39:44;8.20;99.90
70269;DHT22;58514;48.398;-4.274;2022-12-07T11:42:18;8.20;99.90
70269;DHT22;58514;48.398;-4.274;2022-12-07T11:49:54;8.30;99.90
70269;DHT22;58514;48.398;-4.274;2022-12-07T11:52:25;8.30;99.90
70269;DHT22;58514;48.398;-4.274;2022-12-07T11:54:51;8.30;99.90
70269;DHT22;58514;48.398;-4.274;2022-12-07T11:57:28;8.30;99.90
70269;DHT22;58514;48.398;-4.274;2022-12-07T11:59:59;8.30;99.90
70269;DHT22;58514;48.398;-4.274;2022-12-07T12:02:27;8.30;99.90
70269;DHT22;58514;48.398;-4.274;2022-12-07T12:04:55;8.30;99.90
70269;DHT22;58514;48.398;-4.274;2022-12-07T12:07:24;8.30;99.90
70269;DHT22;58514;48.398;-4.274;2022-12-07T12:09:52;8.30;99.90
70269;DHT22;58514;48.398;-4.274;2022-12-07T12:12:30;8.30;99.90
70269;DHT22;58514;48.398;-4.274;2022-12-07T12:15:05;8.30;99.90
70269;DHT22;58514;48.398;-4.274;2022-12-07T12:17:40;8.30;99.90
70269;DHT22;58514;48.398;-4.274;2022-12-07T12:20:29;8.30;99.90
70269;DHT22;58514;48.398;-4.274;2022-12-07T12:23:06;8.30;99.90
70269;DHT22;58514;48.398;-4.274;2022-12-07T12:28:17;8.40;99.90
70269;DHT22;58514;48.398;-4.274;2022-12-07T12:30:44;8.40;99.90
70269;DHT22;58514;48.398;-4.274;2022-12-07T12:33:15;8.50;99.90
70269;DHT22;58514;48.398;-4.274;2022-12-07T12:35:42;8.60;99.90
70269;DHT22;58514;48.398;-4.274;2022-12-07T12:40:52;8.70;99.90
70269;DHT22;58514;48.398;-4.274;2022-12-07T12:48:47;8.90;99.90
70269;DHT22;58514;48.398;-4.274;2022-12-07T12:51:58;8.90;99.90
70269;DHT22;58514;48.398;-4.274;2022-12-07T12:54:56;9.00;99.90
70269;DHT22;58514;48.398;-4.274;2022-12-07T12:59:43;9.00;99.90
70269;DHT22;58514;48.398;-4.274;2022-12-07T13:10:02;9.10;99.90
70269;DHT22;58514;48.398;-4.274;2022-12-07T13:12:28;9.10;99.90
70269;DHT22;58514;48.398;-4.274;2022-12-07T13:14:59;9.10;99.90
70269;DHT22;58514;48.398;-4.274;2022-12-07T13:20:06;9.10;99.90
70269;DHT22;58514;48.398;-4.274;2022-12-07T13:25:09;9.20;99.90
70269;DHT22;58514;48.398;-4.274;2022-12-07T13:27:40;9.20;99.90
70269;DHT22;58514;48.398;-4.274;2022-12-07T13:30:13;9.20;99.90
70269;DHT22;58514;48.398;-4.274;2022-12-07T13:32:39;9.20;99.90
70269;DHT22;58514;48.398;-4.274;2022-12-07T13:37:49;9.10;99.90
70269;DHT22;58514;48.398;-4.274;2022-12-07T13:40:19;9.10;99.90
70269;DHT22;58514;48.398;-4.274;2022-12-07T13:42:45;9.10;99.90
70269;DHT22;58514;48.398;-4.274;2022-12-07T13:45:30;9.20;99.90
70269;DHT22;58514;48.398;-4.274;2022-12-07T13:48:15;9.20;99.90
70269;DHT22;58514;48.398;-4.274;2022-12-07T13:50:41;9.20;99.90
70269;DHT22;58514;48.398;-4.274;2022-12-07T13:53:07;9.20;99.90
70269;DHT22;58514;48.398;-4.274;2022-12-07T13:55:36;9.20;99.90
70269;DHT22;58514;48.398;-4.274;2022-12-07T13:58:09;9.20;99.90
70269;DHT22;58514;48.398;-4.274;2022-12-07T14:00:35;9.30;99.90
70269;DHT22;58514;48.398;-4.274;2022-12-07T14:03:02;9.30;99.90
70269;DHT22;58514;48.398;-4.274;2022-12-07T14:05:29;9.30;99.90
70269;DHT22;58514;48.398;-4.274;2022-12-07T14:07:59;9.30;99.90
70269;DHT22;58514;48.398;-4.274;2022-12-07T14:10:26;9.30;99.90
70269;DHT22;58514;48.398;-4.274;2022-12-07T14:12:52;9.40;99.90
70269;DHT22;58514;48.398;-4.274;2022-12-07T14:15:21;9.40;99.90
70269;DHT22;58514;48.398;-4.274;2022-12-07T14:17:51;9.40;99.90
70269;DHT22;58514;48.398;-4.274;2022-12-07T14:20:37;9.40;99.90
70269;DHT22;58514;48.398;-4.274;2022-12-07T14:23:03;9.40;99.90
70269;DHT22;58514;48.398;-4.274;2022-12-07T14:25:45;9.30;99.90
70269;DHT22;58514;48.398;-4.274;2022-12-07T14:28:27;9.30;99.90
70269;DHT22;58514;48.398;-4.274;2022-12-07T14:30:53;9.30;99.90
70269;DHT22;58514;48.398;-4.274;2022-12-07T14:33:19;9.30;99.90
70269;DHT22;58514;48.398;-4.274;2022-12-07T14:35:45;9.20;99.90
70269;DHT22;58514;48.398;-4.274;2022-12-07T14:38:10;9.20;99.90
70269;DHT22;58514;48.398;-4.274;2022-12-07T14:40:36;9.10;99.90
70269;DHT22;58514;48.398;-4.274;2022-12-07T14:43:03;9.10;99.90
70269;DHT22;58514;48.398;-4.274;2022-12-07T14:45:30;9.10;99.90
70269;DHT22;58514;48.398;-4.274;2022-12-07T14:47:55;9.10;99.90
70269;DHT22;58514;48.398;-4.274;2022-12-07T14:50:21;9.00;99.90
70269;DHT22;58514;48.398;-4.274;2022-12-07T14:52:48;9.00;99.90
70269;DHT22;58514;48.398;-4.274;2022-12-07T14:55:25;9.00;99.90
70269;DHT22;58514;48.398;-4.274;2022-12-07T14:57:51;9.00;99.90
70269;DHT22;58514;48.398;-4.274;2022-12-07T15:00:17;9.00;99.90
70269;DHT22;58514;48.398;-4.274;2022-12-07T15:02:46;9.00;99.90
70269;DHT22;58514;48.398;-4.274;2022-12-07T15:05:12;8.90;99.90
70269;DHT22;58514;48.398;-4.274;2022-12-07T15:07:38;8.90;99.90
70269;DHT22;58514;48.398;-4.274;2022-12-07T15:10:04;8.90;99.90
70269;DHT22;58514;48.398;-4.274;2022-12-07T15:12:30;8.90;99.90
70269;DHT22;58514;48.398;-4.274;2022-12-07T15:14:55;8.90;99.90
70269;DHT22;58514;48.398;-4.274;2022-12-07T15:17:21;8.80;99.90
70269;DHT22;58514;48.398;-4.274;2022-12-07T15:19:46;8.80;99.90
70269;DHT22;58514;48.398;-4.274;2022-12-07T15:22:12;8.80;99.90
70269;DHT22;58514;48.398;-4.274;2022-12-07T15:24:37;8.70;99.90
70269;DHT22;58514;48.398;-4.274;2022-12-07T15:27:03;8.70;99.90
70269;DHT22;58514;48.398;-4.274;2022-12-07T15:29:29;8.70;99.90
70269;DHT22;58514;48.398;-4.274;2022-12-07T15:31:54;8.70;99.90
70269;DHT22;58514;48.398;-4.274;2022-12-07T15:34:20;8.60;99.90
70269;DHT22;58514;48.398;-4.274;2022-12-07T15:36:46;8.60;99.90
70269;DHT22;58514;48.398;-4.274;2022-12-07T15:39:11;8.50;99.90
70269;DHT22;58514;48.398;-4.274;2022-12-07T15:41:37;8.50;99.90
70269;DHT22;58514;48.398;-4.274;2022-12-07T15:44:02;8.50;99.90
70269;DHT22;58514;48.398;-4.274;2022-12-07T15:46:46;8.40;99.90
70269;DHT22;58514;48.398;-4.274;2022-12-07T15:49:13;8.40;99.90
70269;DHT22;58514;48.398;-4.274;2022-12-07T15:51:40;8.40;99.90
70269;DHT22;58514;48.398;-4.274;2022-12-07T15:54:06;8.30;99.90
70269;DHT22;58514;48.398;-4.274;2022-12-07T15:56:31;8.30;99.90
70269;DHT22;58514;48.398;-4.274;2022-12-07T15:58:57;8.30;99.90
70269;DHT22;58514;48.398;-4.274;2022-12-07T16:01:23;8.20;99.90
70269;DHT22;58514;48.398;-4.274;2022-12-07T16:03:48;8.20;99.90
70269;DHT22;58514;48.398;-4.274;2022-12-07T16:06:17;8.20;99.90
70269;DHT22;58514;48.398;-4.274;2022-12-07T16:08:43;8.10;99.90
70269;DHT22;58514;48.398;-4.274;2022-12-07T16:11:09;8.10;99.90
70269;DHT22;58514;48.398;-4.274;2022-12-07T16:13:35;8.10;99.90
70269;DHT22;58514;48.398;-4.274;2022-12-07T16:16:04;8.00;99.90
70269;DHT22;58514;48.398;-4.274;2022-12-07T16:18:30;8.00;99.90
70269;DHT22;58514;48.398;-4.274;2022-12-07T16:20:55;7.90;99.90
70269;DHT22;58514;48.398;-4.274;2022-12-07T16:23:21;7.90;99.90
70269;DHT22;58514;48.398;-4.274;2022-12-07T16:25:47;7.90;99.90
70269;DHT22;58514;48.398;-4.274;2022-12-07T16:28:12;7.90;99.90
70269;DHT22;58514;48.398;-4.274;2022-12-07T16:30:38;7.80;99.90
70269;DHT22;58514;48.398;-4.274;2022-12-07T16:33:03;7.80;99.90
70269;DHT22;58514;48.398;-4.274;2022-12-07T16:35:29;7.80;99.90
70269;DHT22;58514;48.398;-4.274;2022-12-07T16:37:54;7.80;99.90
70269;DHT22;58514;48.398;-4.274;2022-12-07T16:40:20;7.80;99.90
70269;DHT22;58514;48.398;-4.274;2022-12-07T16:42:46;7.80;99.90
70269;DHT22;58514;48.398;-4.274;2022-12-07T16:45:11;7.80;99.90
70269;DHT22;58514;48.398;-4.274;2022-12-07T16:47:37;7.80;99.90
70269;DHT22;58514;48.398;-4.274;2022-12-07T16:50:03;7.70;99.90
70269;DHT22;58514;48.398;-4.274;2022-12-07T16:52:29;7.60;99.90
70269;DHT22;58514;48.398;-4.274;2022-12-07T16:54:54;7.60;99.90
70269;DHT22;58514;48.398;-4.274;2022-12-07T16:57:20;7.60;99.90
70269;DHT22;58514;48.398;-4.274;2022-12-07T16:59:46;7.50;99.90
70269;DHT22;58514;48.398;-4.274;2022-12-07T17:02:11;7.50;99.90
70269;DHT22;58514;48.398;-4.274;2022-12-07T17:04:37;7.50;99.90
70269;DHT22;58514;48.398;-4.274;2022-12-07T17:07:05;7.40;99.90
70269;DHT22;58514;48.398;-4.274;2022-12-07T17:09:31;7.40;99.90
70269;DHT22;58514;48.398;-4.274;2022-12-07T17:11:56;7.40;99.90
70269;DHT22;58514;48.398;-4.274;2022-12-07T17:14:23;7.40;99.90
70269;DHT22;58514;48.398;-4.274;2022-12-07T17:17:07;7.40;99.90